createdAt,value
2023-11-18T00:04:57.537Z,1008.68
2023-11-18T00:09:57.516Z,1008.69
2023-11-18T00:14:57.492Z,1008.73
2023-11-18T00:19:57.426Z,1008.78
2023-11-18T00:24:57.647Z,1008.81
2023-11-18T00:29:57.333Z,1008.72
2023-11-18T00:34:57.442Z,1008.67
2023-11-18T00:39:57.795Z,1008.72
2023-11-18T00:44:57.136Z,1008.68
2023-11-18T00:49:59.391Z,1008.60
2023-11-18T00:54:58.151Z,1008.57
2023-11-18T01:00:04.987Z,1008.55
2023-11-18T01:04:58.466Z,1008.50
2023-11-18T01:09:58.348Z,1008.54
2023-11-18T01:15:01.071Z,1008.60
2023-11-18T01:19:57.278Z,1008.58
2023-11-18T01:24:58.120Z,1008.61
2023-11-18T01:29:57.403Z,1008.71
2023-11-18T01:34:58.720Z,1008.84
2023-11-18T01:39:57.109Z,1008.87
2023-11-18T01:44:57.090Z,1008.90
2023-11-18T01:49:57.225Z,1008.91
2023-11-18T01:54:58.097Z,1008.91
2023-11-18T01:59:57.642Z,1008.83
2023-11-18T02:04:56.700Z,1008.76
2023-11-18T02:09:56.727Z,1008.78
2023-11-18T02:14:57.072Z,1008.72
2023-11-18T02:20:16.283Z,1008.65
2023-11-18T02:25:11.778Z,1008.63
2023-11-18T02:29:56.385Z,1008.71
2023-11-18T02:34:57.186Z,1008.62
2023-11-18T02:39:55.885Z,1008.57
2023-11-18T02:44:55.947Z,1008.56
2023-11-18T02:49:58.806Z,1008.45
2023-11-18T02:54:55.713Z,1008.51
2023-11-18T02:59:57.991Z,1008.63
2023-11-18T03:04:55.608Z,1008.72
2023-11-18T03:09:55.764Z,1008.66
2023-11-18T03:14:55.489Z,1008.50
2023-11-18T03:19:55.500Z,1008.36
2023-11-18T03:24:55.440Z,1008.26
2023-11-18T03:29:56.749Z,1008.22
2023-11-18T03:34:58.364Z,1008.21
2023-11-18T03:39:55.443Z,1008.08
2023-11-18T03:44:55.557Z,1008.10
2023-11-18T03:49:55.112Z,1008.17
2023-11-18T03:54:55.390Z,1008.17
2023-11-18T04:00:00.504Z,1008.36
2023-11-18T04:04:56.006Z,1008.41
2023-11-18T04:09:54.912Z,1008.46
2023-11-18T04:14:54.909Z,1008.30
2023-11-18T04:19:58.904Z,1008.36
2023-11-18T04:24:54.934Z,1008.35
2023-11-18T04:29:54.687Z,1008.23
2023-11-18T04:34:54.784Z,1008.17
2023-11-18T04:39:54.972Z,1007.98
2023-11-18T04:44:54.575Z,1007.89
2023-11-18T04:49:55.037Z,1007.82
2023-11-18T04:54:54.627Z,1007.74
2023-11-18T04:59:55.405Z,1007.72
2023-11-18T05:04:54.463Z,1007.65
2023-11-18T05:09:54.258Z,1007.53
2023-11-18T05:14:54.255Z,1007.47
2023-11-18T05:19:54.291Z,1007.44
2023-11-18T05:24:54.082Z,1007.36
2023-11-18T05:29:54.147Z,1007.31
2023-11-18T05:34:54.065Z,1007.30
2023-11-18T05:39:53.975Z,1007.29
2023-11-18T05:44:53.922Z,1007.30
2023-11-18T05:49:53.976Z,1007.28
2023-11-18T05:54:53.784Z,1007.31
2023-11-18T05:59:53.692Z,1007.34
2023-11-18T06:04:53.666Z,1007.37
2023-11-18T06:09:53.697Z,1007.24
2023-11-18T06:14:53.889Z,1007.19
2023-11-18T06:19:53.850Z,1007.18
2023-11-18T06:24:53.431Z,1007.06
2023-11-18T06:29:53.416Z,1006.87
2023-11-18T06:34:53.422Z,1006.88
2023-11-18T06:39:53.420Z,1006.98
2023-11-18T06:46:26.796Z,1007.04
2023-11-18T06:51:27.029Z,1007.06
2023-11-18T06:56:26.469Z,1006.99
2023-11-18T07:01:26.673Z,1006.86
2023-11-18T07:06:26.342Z,1006.94
2023-11-18T07:11:26.249Z,1007.02
2023-11-18T07:16:26.227Z,1007.17
2023-11-18T07:21:26.124Z,1007.26
2023-11-18T07:26:26.050Z,1007.13
2023-11-18T07:31:26.156Z,1007.02
2023-11-18T07:36:25.925Z,1007.14
2023-11-18T07:41:25.934Z,1007.16
2023-11-18T07:46:25.921Z,1007.05
2023-11-18T07:51:25.949Z,1006.86
2023-11-18T07:56:25.736Z,1006.71
2023-11-18T08:01:25.800Z,1006.76
2023-11-18T08:06:25.616Z,1006.71
2023-11-18T08:11:25.629Z,1006.75
2023-11-18T08:16:25.571Z,1006.71
2023-11-18T08:21:25.445Z,1006.85
2023-11-18T08:26:25.395Z,1006.85
2023-11-18T08:31:25.399Z,1006.77
2023-11-18T08:36:25.368Z,1006.81
2023-11-18T08:41:25.175Z,1006.81
2023-11-18T08:46:25.312Z,1006.71
2023-11-18T08:51:25.155Z,1006.75
2023-11-18T08:56:25.127Z,1006.77
2023-11-18T09:01:24.987Z,1006.69
2023-11-18T09:06:25.121Z,1006.66
2023-11-18T09:11:25.798Z,1006.60
2023-11-18T09:16:25.011Z,1006.50
2023-11-18T09:21:24.918Z,1006.41
2023-11-18T09:26:24.976Z,1006.33
2023-11-18T09:31:24.849Z,1006.21
2023-11-18T09:36:24.870Z,1006.09
2023-11-18T09:41:24.725Z,1006.08
2023-11-18T09:46:24.830Z,1006.14
2023-11-18T09:51:24.701Z,1006.16
2023-11-18T09:56:24.515Z,1006.27
2023-11-18T10:01:24.539Z,1006.17
2023-11-18T10:06:24.464Z,1006.15
2023-11-18T10:11:24.403Z,1006.11
2023-11-18T10:16:24.330Z,1006.04
2023-11-18T10:21:24.327Z,1005.87
2023-11-18T10:26:24.127Z,1005.81
2023-11-18T10:31:24.064Z,1005.63
2023-11-18T10:36:24.112Z,1005.43
2023-11-18T10:41:24.153Z,1005.38
2023-11-18T10:46:23.970Z,1005.27
2023-11-18T10:51:23.861Z,1005.24
2023-11-18T10:56:23.876Z,1005.04
2023-11-18T11:01:23.997Z,1004.94
2023-11-18T11:06:23.783Z,1004.96
2023-11-18T11:11:23.750Z,1004.84
2023-11-18T11:16:23.634Z,1004.59
2023-11-18T11:21:23.509Z,1004.61
2023-11-18T11:26:23.552Z,1004.64
2023-11-18T11:31:23.389Z,1004.66
2023-11-18T11:36:23.375Z,1004.76
2023-11-18T11:41:23.300Z,1004.76
2023-11-18T11:46:23.291Z,1004.77
2023-11-18T11:51:23.178Z,1004.67
2023-11-18T11:56:23.321Z,1004.63
2023-11-18T12:01:23.056Z,1004.53
2023-11-18T12:06:23.094Z,1004.51
2023-11-18T12:11:23.085Z,1004.57
2023-11-18T12:16:23.039Z,1004.64
2023-11-18T12:21:22.905Z,1004.51
2023-11-18T12:26:22.778Z,1004.19
2023-11-18T12:31:23.030Z,1004.00
2023-11-18T12:36:23.213Z,1003.79
2023-11-18T12:41:22.854Z,1003.59
2023-11-18T12:46:23.801Z,1003.56
2023-11-18T12:51:22.717Z,1003.41
2023-11-18T12:56:22.812Z,1003.40
2023-11-18T13:01:22.583Z,1003.24
2023-11-18T13:06:24.592Z,1003.03
2023-11-18T13:11:22.608Z,1002.75
2023-11-18T13:16:22.267Z,1002.72
2023-11-18T13:21:22.205Z,1002.70
2023-11-18T13:26:22.286Z,1002.42
2023-11-18T13:31:22.123Z,1002.12
2023-11-18T13:36:22.358Z,1001.99
2023-11-18T13:41:22.124Z,1001.83
2023-11-18T13:46:21.915Z,1001.65
2023-11-18T13:51:21.945Z,1001.57
2023-11-18T13:56:21.880Z,1001.50
2023-11-18T14:01:21.832Z,1001.35
2023-11-18T14:06:21.731Z,1001.22
2023-11-18T14:11:21.697Z,1001.10
2023-11-18T14:16:21.607Z,1001.08
2023-11-18T14:21:21.646Z,1000.84
2023-11-18T14:26:21.507Z,1000.55
2023-11-18T14:31:21.499Z,1000.18
2023-11-18T14:36:21.419Z,1000.12
2023-11-18T14:41:21.414Z,1000.17
2023-11-18T14:46:21.415Z,1000.55
2023-11-18T14:51:21.224Z,1000.39
2023-11-18T14:56:21.267Z,1000.49
2023-11-18T15:01:21.276Z,1000.26
2023-11-18T15:06:21.540Z,1000.02
2023-11-18T15:11:21.206Z,999.65
2023-11-18T15:16:21.145Z,999.41
2023-11-18T15:21:21.232Z,999.49
2023-11-18T15:26:20.888Z,999.22
2023-11-18T15:31:20.896Z,999.14
2023-11-18T15:36:21.814Z,999.05
2023-11-18T15:41:25.251Z,998.68
2023-11-18T15:46:20.727Z,998.70
2023-11-18T15:51:20.602Z,998.59
2023-11-18T15:56:20.550Z,998.39
2023-11-18T16:01:20.496Z,998.36
2023-11-18T16:06:20.553Z,998.20
2023-11-18T16:11:20.472Z,997.96
2023-11-18T16:16:20.458Z,997.80
2023-11-18T16:21:20.276Z,997.80
2023-11-18T16:26:20.321Z,997.87
2023-11-18T16:31:20.294Z,997.78
2023-11-18T16:36:20.129Z,997.61
2023-11-18T16:41:21.728Z,997.48
2023-11-18T16:46:20.008Z,997.40
2023-11-18T16:51:19.939Z,997.39
2023-11-18T16:56:20.025Z,997.24
2023-11-18T17:01:20.315Z,997.31
2023-11-18T17:06:22.009Z,997.26
2023-11-18T17:11:23.937Z,997.13
2023-11-18T17:16:20.092Z,997.18
2023-11-18T17:21:19.701Z,996.87
2023-11-18T17:26:19.650Z,996.92
2023-11-18T17:31:19.579Z,996.99
2023-11-18T17:36:19.474Z,996.96
2023-11-18T17:41:22.895Z,996.84
2023-11-18T17:46:19.685Z,996.97
2023-11-18T17:51:19.510Z,997.02
2023-11-18T17:56:19.315Z,996.86
2023-11-18T18:01:20.999Z,996.66
2023-11-18T18:06:19.179Z,996.71
2023-11-18T18:11:19.272Z,996.73
2023-11-18T18:16:19.155Z,996.76
2023-11-18T18:21:19.080Z,996.81
2023-11-18T18:26:20.033Z,996.89
2023-11-18T18:31:20.287Z,997.05
2023-11-18T18:36:20.307Z,996.97
2023-11-18T18:41:18.773Z,996.92
2023-11-18T18:46:19.817Z,996.74
2023-11-18T18:51:18.693Z,996.78
2023-11-18T18:56:18.745Z,996.53
2023-11-18T19:01:19.314Z,996.79
2023-11-18T19:06:18.736Z,996.83
2023-11-18T19:11:19.694Z,996.79
2023-11-18T19:16:18.604Z,996.69
2023-11-18T19:21:19.291Z,996.80
2023-11-18T19:26:18.403Z,996.68
2023-11-18T19:31:18.224Z,996.68
2023-11-18T19:36:18.205Z,996.79
2023-11-18T19:41:18.135Z,996.45
2023-11-18T19:46:18.193Z,996.58
2023-11-18T19:51:18.064Z,996.59
2023-11-18T19:56:18.109Z,996.33
2023-11-18T20:01:19.049Z,996.29
2023-11-18T20:06:17.884Z,996.43
2023-11-18T20:11:17.883Z,996.44
2023-11-18T20:16:17.746Z,996.22
2023-11-18T20:21:17.864Z,996.03
2023-11-18T20:26:17.889Z,996.07
2023-11-18T20:31:17.845Z,996.05
2023-11-18T20:36:17.910Z,995.98
2023-11-18T20:41:20.329Z,995.82
2023-11-18T20:46:17.459Z,995.80
2023-11-18T20:51:17.510Z,995.63
2023-11-18T20:56:17.351Z,995.55
2023-11-18T21:01:17.230Z,995.71
2023-11-18T21:06:21.606Z,995.60
2023-11-18T21:11:18.264Z,995.55
2023-11-18T21:16:17.160Z,995.43
2023-11-18T21:21:17.106Z,995.50
2023-11-18T21:26:17.128Z,995.54
2023-11-18T21:31:16.919Z,995.46
2023-11-18T21:36:16.882Z,995.27
2023-11-18T21:41:17.024Z,995.31
2023-11-18T21:46:16.782Z,995.12
2023-11-18T21:51:18.825Z,995.40
2023-11-18T21:56:16.727Z,995.31
2023-11-18T22:01:16.583Z,995.16
2023-11-18T22:06:19.970Z,995.00
2023-11-18T22:11:20.131Z,994.97
2023-11-18T22:16:16.477Z,995.02
2023-11-18T22:21:16.378Z,994.98
2023-11-18T22:26:16.332Z,994.94
2023-11-18T22:31:16.464Z,994.91
2023-11-18T22:36:16.221Z,994.86
2023-11-18T22:41:17.176Z,994.91
2023-11-18T22:46:16.246Z,994.86
2023-11-18T22:51:16.206Z,994.67
2023-11-18T22:56:16.096Z,994.51
2023-11-18T23:01:15.969Z,994.56
2023-11-18T23:06:15.928Z,994.63
2023-11-18T23:11:15.851Z,994.50
2023-11-18T23:16:15.810Z,994.52
2023-11-18T23:21:16.061Z,994.49
2023-11-18T23:26:15.663Z,994.44
2023-11-18T23:31:15.639Z,994.44
2023-11-18T23:36:15.591Z,994.39
2023-11-18T23:41:15.532Z,994.41
2023-11-18T23:46:15.735Z,994.22
2023-11-18T23:51:15.482Z,994.19
2023-11-18T23:56:15.372Z,993.87
